Zearing, Iowa
Current Conditions -  °F | °C
As of 12:53 PM on Sunday 21 Dec 2014 (Local Time) from KAMW Reporting Station
Overcast Overcast  
Wind Chill: 30°   Ceiling: 1200
Heat Index: 39°   Visibility: 8mi
Dew Point: 35°   Wind: 17mph
Humidity: 86%   Direction: 180°S
Pressure: 29.85"   Gusts: 23mph
Location:  42.16°N, 93.3°W
Report Text: KAMW 211853Z AUTO 18015G20KT 8SM OVC012 04/02 A2985 RMK AO2 SLP113 T00390017
Loading
Personal Weather Stations






























Interactive Weather Map New forecast layout! Learn more

10-Day Weather Forecast

Advertisements
Track Severe Weather on mobile